sensor_id;sensor_type;location;lat;lon;timestamp;temperature;humidity
76291;DHT22;65100;46.884;17.410;2023-10-31T00:01:27;14.67;80.92
76291;DHT22;65100;46.884;17.410;2023-10-31T00:03:53;14.63;81.08
76291;DHT22;65100;46.884;17.410;2023-10-31T00:06:18;14.63;81.73
76291;DHT22;65100;46.884;17.410;2023-10-31T00:08:43;14.63;81.24
76291;DHT22;65100;46.884;17.410;2023-10-31T00:11:09;14.71;80.97
76291;DHT22;65100;46.884;17.410;2023-10-31T00:13:34;14.64;80.11
76291;DHT22;65100;46.884;17.410;2023-10-31T00:16:00;14.84;80.95
76291;DHT22;65100;46.884;17.410;2023-10-31T00:18:25;14.73;79.66
76291;DHT22;65100;46.884;17.410;2023-10-31T00:20:50;14.81;79.93
76291;DHT22;65100;46.884;17.410;2023-10-31T00:23:16;14.88;79.14
76291;DHT22;65100;46.884;17.410;2023-10-31T00:25:41;14.87;78.78
76291;DHT22;65100;46.884;17.410;2023-10-31T00:28:07;14.98;78.30
76291;DHT22;65100;46.884;17.410;2023-10-31T00:30:32;14.99;78.96
76291;DHT22;65100;46.884;17.410;2023-10-31T00:32:58;14.88;79.27
76291;DHT22;65100;46.884;17.410;2023-10-31T00:35:23;14.78;79.42
76291;DHT22;65100;46.884;17.410;2023-10-31T00:37:48;14.94;77.93
76291;DHT22;65100;46.884;17.410;2023-10-31T00:40:14;14.98;77.37
76291;DHT22;65100;46.884;17.410;2023-10-31T00:42:41;15.08;78.28
76291;DHT22;65100;46.884;17.410;2023-10-31T00:45:07;15.02;79.14
76291;DHT22;65100;46.884;17.410;2023-10-31T00:47:33;14.95;79.36
76291;DHT22;65100;46.884;17.410;2023-10-31T00:49:58;14.85;79.77
76291;DHT22;65100;46.884;17.410;2023-10-31T00:52:24;14.78;79.86
76291;DHT22;65100;46.884;17.410;2023-10-31T00:54:49;14.71;80.17
76291;DHT22;65100;46.884;17.410;2023-10-31T00:57:15;14.73;80.19
76291;DHT22;65100;46.884;17.410;2023-10-31T00:59:40;14.64;80.18
76291;DHT22;65100;46.884;17.410;2023-10-31T01:02:06;14.59;80.35
76291;DHT22;65100;46.884;17.410;2023-10-31T01:04:31;14.53;80.29
76291;DHT22;65100;46.884;17.410;2023-10-31T01:06:57;14.41;80.82
76291;DHT22;65100;46.884;17.410;2023-10-31T01:09:22;14.27;81.59
76291;DHT22;65100;46.884;17.410;2023-10-31T01:11:48;14.16;82.25
76291;DHT22;65100;46.884;17.410;2023-10-31T01:14:13;14.13;81.95
76291;DHT22;65100;46.884;17.410;2023-10-31T01:16:40;14.09;82.41
76291;DHT22;65100;46.884;17.410;2023-10-31T01:19:06;14.08;82.48
76291;DHT22;65100;46.884;17.410;2023-10-31T01:21:32;13.99;82.00
76291;DHT22;65100;46.884;17.410;2023-10-31T01:23:59;14.00;82.06
76291;DHT22;65100;46.884;17.410;2023-10-31T01:26:24;14.02;81.36
76291;DHT22;65100;46.884;17.410;2023-10-31T01:28:49;14.13;82.04
76291;DHT22;65100;46.884;17.410;2023-10-31T01:31:15;14.16;82.05
76291;DHT22;65100;46.884;17.410;2023-10-31T01:33:40;14.05;81.49
76291;DHT22;65100;46.884;17.410;2023-10-31T01:36:06;14.05;81.72
76291;DHT22;65100;46.884;17.410;2023-10-31T01:38:32;14.10;80.68
76291;DHT22;65100;46.884;17.410;2023-10-31T01:40:57;14.12;80.68
76291;DHT22;65100;46.884;17.410;2023-10-31T01:43:30;14.23;81.20
76291;DHT22;65100;46.884;17.410;2023-10-31T01:45:56;14.31;80.92
76291;DHT22;65100;46.884;17.410;2023-10-31T01:48:21;14.29;81.30
76291;DHT22;65100;46.884;17.410;2023-10-31T01:50:49;14.27;80.94
76291;DHT22;65100;46.884;17.410;2023-10-31T01:53:15;14.36;81.03
76291;DHT22;65100;46.884;17.410;2023-10-31T01:55:40;14.41;80.05
76291;DHT22;65100;46.884;17.410;2023-10-31T01:58:06;14.56;80.35
76291;DHT22;65100;46.884;17.410;2023-10-31T02:00:32;14.53;80.15
76291;DHT22;65100;46.884;17.410;2023-10-31T02:02:57;14.56;80.97
76291;DHT22;65100;46.884;17.410;2023-10-31T02:05:23;14.21;81.30
76291;DHT22;65100;46.884;17.410;2023-10-31T02:07:49;14.40;81.35
76291;DHT22;65100;46.884;17.410;2023-10-31T02:10:14;14.26;80.88
76291;DHT22;65100;46.884;17.410;2023-10-31T02:12:40;14.31;80.36
76291;DHT22;65100;46.884;17.410;2023-10-31T02:15:06;14.45;79.98
76291;DHT22;65100;46.884;17.410;2023-10-31T02:17:31;14.61;80.22
76291;DHT22;65100;46.884;17.410;2023-10-31T02:19:57;14.53;80.30
76291;DHT22;65100;46.884;17.410;2023-10-31T02:22:23;14.56;78.45
76291;DHT22;65100;46.884;17.410;2023-10-31T02:24:48;14.33;81.70
76291;DHT22;65100;46.884;17.410;2023-10-31T02:27:14;14.47;78.69
76291;DHT22;65100;46.884;17.410;2023-10-31T02:29:39;14.44;78.54
76291;DHT22;65100;46.884;17.410;2023-10-31T02:32:05;14.63;79.82
76291;DHT22;65100;46.884;17.410;2023-10-31T02:34:31;14.65;79.30
76291;DHT22;65100;46.884;17.410;2023-10-31T02:36:56;14.75;78.91
76291;DHT22;65100;46.884;17.410;2023-10-31T02:39:21;14.91;80.46
76291;DHT22;65100;46.884;17.410;2023-10-31T02:41:47;14.95;81.01
76291;DHT22;65100;46.884;17.410;2023-10-31T02:44:15;14.88;79.92
76291;DHT22;65100;46.884;17.410;2023-10-31T02:46:40;14.81;79.26
76291;DHT22;65100;46.884;17.410;2023-10-31T02:49:06;14.81;80.01
76291;DHT22;65100;46.884;17.410;2023-10-31T02:51:31;14.85;78.94
76291;DHT22;65100;46.884;17.410;2023-10-31T02:53:57;14.85;79.37
76291;DHT22;65100;46.884;17.410;2023-10-31T02:56:22;14.85;80.63
76291;DHT22;65100;46.884;17.410;2023-10-31T02:58:48;14.78;81.36
76291;DHT22;65100;46.884;17.410;2023-10-31T03:01:14;14.77;80.87
76291;DHT22;65100;46.884;17.410;2023-10-31T03:03:39;14.73;77.26
76291;DHT22;65100;46.884;17.410;2023-10-31T03:06:05;14.73;78.41
76291;DHT22;65100;46.884;17.410;2023-10-31T03:08:31;14.84;75.38
76291;DHT22;65100;46.884;17.410;2023-10-31T03:10:56;15.04;74.34
76291;DHT22;65100;46.884;17.410;2023-10-31T03:13:22;15.17;74.41
76291;DHT22;65100;46.884;17.410;2023-10-31T03:15:48;15.36;72.52
76291;DHT22;65100;46.884;17.410;2023-10-31T03:18:14;15.35;72.45
76291;DHT22;65100;46.884;17.410;2023-10-31T03:20:40;15.35;74.67
76291;DHT22;65100;46.884;17.410;2023-10-31T03:23:05;15.35;74.12
76291;DHT22;65100;46.884;17.410;2023-10-31T03:25:31;15.41;75.06
76291;DHT22;65100;46.884;17.410;2023-10-31T03:27:56;15.51;71.68
76291;DHT22;65100;46.884;17.410;2023-10-31T03:30:22;15.56;70.99
76291;DHT22;65100;46.884;17.410;2023-10-31T03:32:47;15.59;70.95
76291;DHT22;65100;46.884;17.410;2023-10-31T03:35:12;15.55;71.80
76291;DHT22;65100;46.884;17.410;2023-10-31T03:37:38;15.55;71.55
76291;DHT22;65100;46.884;17.410;2023-10-31T03:40:08;15.61;68.03
76291;DHT22;65100;46.884;17.410;2023-10-31T03:42:34;15.70;68.11
76291;DHT22;65100;46.884;17.410;2023-10-31T03:44:59;15.85;67.71
76291;DHT22;65100;46.884;17.410;2023-10-31T03:47:25;15.85;67.70
76291;DHT22;65100;46.884;17.410;2023-10-31T03:49:50;15.86;65.96
76291;DHT22;65100;46.884;17.410;2023-10-31T03:52:15;16.00;65.64
76291;DHT22;65100;46.884;17.410;2023-10-31T03:54:41;16.03;65.90
76291;DHT22;65100;46.884;17.410;2023-10-31T03:57:06;15.96;66.27
76291;DHT22;65100;46.884;17.410;2023-10-31T03:59:32;15.85;67.07
76291;DHT22;65100;46.884;17.410;2023-10-31T04:01:57;15.89;66.42
76291;DHT22;65100;46.884;17.410;2023-10-31T04:04:22;15.90;66.80
76291;DHT22;65100;46.884;17.410;2023-10-31T04:06:48;15.79;67.10
76291;DHT22;65100;46.884;17.410;2023-10-31T04:09:13;15.92;64.57
76291;DHT22;65100;46.884;17.410;2023-10-31T04:11:39;16.12;63.65
76291;DHT22;65100;46.884;17.410;2023-10-31T04:14:05;16.13;64.64
76291;DHT22;65100;46.884;17.410;2023-10-31T04:16:31;16.07;65.15
76291;DHT22;65100;46.884;17.410;2023-10-31T04:18:56;16.13;64.48
76291;DHT22;65100;46.884;17.410;2023-10-31T04:21:22;16.12;64.25
76291;DHT22;65100;46.884;17.410;2023-10-31T04:23:47;16.23;64.57
76291;DHT22;65100;46.884;17.410;2023-10-31T04:26:13;16.24;63.24
76291;DHT22;65100;46.884;17.410;2023-10-31T04:28:38;16.27;63.49
76291;DHT22;65100;46.884;17.410;2023-10-31T04:31:04;16.23;62.41
76291;DHT22;65100;46.884;17.410;2023-10-31T04:33:29;16.33;61.66
76291;DHT22;65100;46.884;17.410;2023-10-31T04:35:55;16.36;61.71
76291;DHT22;65100;46.884;17.410;2023-10-31T04:38:21;16.34;60.78
76291;DHT22;65100;46.884;17.410;2023-10-31T04:40:46;16.46;60.44
76291;DHT22;65100;46.884;17.410;2023-10-31T04:43:11;16.44;60.98
76291;DHT22;65100;46.884;17.410;2023-10-31T04:45:37;16.43;61.65
76291;DHT22;65100;46.884;17.410;2023-10-31T04:48:02;16.36;61.68
76291;DHT22;65100;46.884;17.410;2023-10-31T04:50:28;16.37;63.60
76291;DHT22;65100;46.884;17.410;2023-10-31T04:52:53;16.34;64.54
76291;DHT22;65100;46.884;17.410;2023-10-31T04:55:19;16.40;62.09
76291;DHT22;65100;46.884;17.410;2023-10-31T04:57:44;16.36;62.28
76291;DHT22;65100;46.884;17.410;2023-10-31T05:00:10;16.31;63.16
76291;DHT22;65100;46.884;17.410;2023-10-31T05:02:36;16.33;62.85
76291;DHT22;65100;46.884;17.410;2023-10-31T05:05:01;16.26;63.30
76291;DHT22;65100;46.884;17.410;2023-10-31T05:07:27;16.24;65.15
76291;DHT22;65100;46.884;17.410;2023-10-31T05:09:52;16.23;64.38
76291;DHT22;65100;46.884;17.410;2023-10-31T05:12:17;16.24;65.32
76291;DHT22;65100;46.884;17.410;2023-10-31T05:14:43;16.14;65.69
76291;DHT22;65100;46.884;17.410;2023-10-31T05:17:08;16.02;66.83
76291;DHT22;65100;46.884;17.410;2023-10-31T05:19:34;15.96;67.36
76291;DHT22;65100;46.884;17.410;2023-10-31T05:21:59;15.87;66.69
76291;DHT22;65100;46.884;17.410;2023-10-31T05:24:24;15.83;67.04
76291;DHT22;65100;46.884;17.410;2023-10-31T05:26:50;15.85;66.91
76291;DHT22;65100;46.884;17.410;2023-10-31T05:29:15;15.70;68.06
76291;DHT22;65100;46.884;17.410;2023-10-31T05:31:41;15.61;68.41
76291;DHT22;65100;46.884;17.410;2023-10-31T05:34:08;15.66;68.35
76291;DHT22;65100;46.884;17.410;2023-10-31T05:36:33;15.79;66.09
76291;DHT22;65100;46.884;17.410;2023-10-31T05:38:59;16.02;64.41
76291;DHT22;65100;46.884;17.410;2023-10-31T05:41:24;16.12;65.25
76291;DHT22;65100;46.884;17.410;2023-10-31T05:43:50;16.07;64.30
76291;DHT22;65100;46.884;17.410;2023-10-31T05:46:15;16.14;65.81
76291;DHT22;65100;46.884;17.410;2023-10-31T05:48:43;16.05;65.85
76291;DHT22;65100;46.884;17.410;2023-10-31T05:51:14;16.05;66.74
76291;DHT22;65100;46.884;17.410;2023-10-31T05:53:40;16.00;65.61
76291;DHT22;65100;46.884;17.410;2023-10-31T05:56:07;16.02;68.01
76291;DHT22;65100;46.884;17.410;2023-10-31T05:58:33;16.10;64.91
76291;DHT22;65100;46.884;17.410;2023-10-31T06:00:58;16.07;64.78
76291;DHT22;65100;46.884;17.410;2023-10-31T06:03:23;16.00;66.88
76291;DHT22;65100;46.884;17.410;2023-10-31T06:05:49;16.06;64.99
76291;DHT22;65100;46.884;17.410;2023-10-31T06:08:14;16.20;63.88
76291;DHT22;65100;46.884;17.410;2023-10-31T06:10:40;16.27;64.15
76291;DHT22;65100;46.884;17.410;2023-10-31T06:13:05;16.24;66.67
76291;DHT22;65100;46.884;17.410;2023-10-31T06:15:31;16.29;68.77
76291;DHT22;65100;46.884;17.410;2023-10-31T06:17:56;16.13;67.81
76291;DHT22;65100;46.884;17.410;2023-10-31T06:20:21;16.03;68.31
76291;DHT22;65100;46.884;17.410;2023-10-31T06:22:47;15.90;67.79
76291;DHT22;65100;46.884;17.410;2023-10-31T06:25:12;16.10;64.18
76291;DHT22;65100;46.884;17.410;2023-10-31T06:27:38;16.16;64.89
76291;DHT22;65100;46.884;17.410;2023-10-31T06:30:04;16.31;61.96
76291;DHT22;65100;46.884;17.410;2023-10-31T06:32:29;16.49;61.61
76291;DHT22;65100;46.884;17.410;2023-10-31T06:34:55;16.78;59.23
76291;DHT22;65100;46.884;17.410;2023-10-31T06:37:20;16.83;59.83
76291;DHT22;65100;46.884;17.410;2023-10-31T06:39:45;17.01;59.92
76291;DHT22;65100;46.884;17.410;2023-10-31T06:42:11;17.15;60.09
76291;DHT22;65100;46.884;17.410;2023-10-31T06:44:37;17.63;58.43
76291;DHT22;65100;46.884;17.410;2023-10-31T06:47:02;18.03;56.87
76291;DHT22;65100;46.884;17.410;2023-10-31T06:49:28;17.93;57.17
76291;DHT22;65100;46.884;17.410;2023-10-31T06:51:53;17.79;57.63
76291;DHT22;65100;46.884;17.410;2023-10-31T06:54:19;17.75;58.51
76291;DHT22;65100;46.884;17.410;2023-10-31T06:56:44;17.82;59.04
76291;DHT22;65100;46.884;17.410;2023-10-31T06:59:10;17.90;59.21
76291;DHT22;65100;46.884;17.410;2023-10-31T07:01:35;18.00;59.46
76291;DHT22;65100;46.884;17.410;2023-10-31T07:04:01;18.16;58.19
76291;DHT22;65100;46.884;17.410;2023-10-31T07:06:26;18.16;59.79
76291;DHT22;65100;46.884;17.410;2023-10-31T07:08:52;17.99;62.08
76291;DHT22;65100;46.884;17.410;2023-10-31T07:11:17;18.00;60.98
76291;DHT22;65100;46.884;17.410;2023-10-31T07:14:03;18.06;60.67
76291;DHT22;65100;46.884;17.410;2023-10-31T07:16:49;18.03;62.24
76291;DHT22;65100;46.884;17.410;2023-10-31T07:19:15;18.06;60.55
76291;DHT22;65100;46.884;17.410;2023-10-31T07:21:40;18.00;61.70
76291;DHT22;65100;46.884;17.410;2023-10-31T07:24:06;18.02;62.66
76291;DHT22;65100;46.884;17.410;2023-10-31T07:26:34;18.07;63.22
76291;DHT22;65100;46.884;17.410;2023-10-31T07:29:00;18.02;62.35
76291;DHT22;65100;46.884;17.410;2023-10-31T07:31:25;17.87;63.09
76291;DHT22;65100;46.884;17.410;2023-10-31T07:33:50;17.79;64.39
76291;DHT22;65100;46.884;17.410;2023-10-31T07:36:16;17.71;64.94
76291;DHT22;65100;46.884;17.410;2023-10-31T07:38:41;17.89;66.49
76291;DHT22;65100;46.884;17.410;2023-10-31T07:41:07;17.96;65.31
76291;DHT22;65100;46.884;17.410;2023-10-31T07:43:32;17.97;65.91
76291;DHT22;65100;46.884;17.410;2023-10-31T07:45:58;17.86;66.83
76291;DHT22;65100;46.884;17.410;2023-10-31T07:48:23;17.72;67.78
76291;DHT22;65100;46.884;17.410;2023-10-31T07:50:49;17.86;65.26
76291;DHT22;65100;46.884;17.410;2023-10-31T07:53:14;17.86;66.68
76291;DHT22;65100;46.884;17.410;2023-10-31T07:55:39;17.96;66.85
76291;DHT22;65100;46.884;17.410;2023-10-31T07:58:05;17.83;65.62
76291;DHT22;65100;46.884;17.410;2023-10-31T08:00:30;18.05;64.71
76291;DHT22;65100;46.884;17.410;2023-10-31T08:02:57;18.03;65.26
76291;DHT22;65100;46.884;17.410;2023-10-31T08:05:22;18.03;64.37
76291;DHT22;65100;46.884;17.410;2023-10-31T08:07:48;18.14;63.88
76291;DHT22;65100;46.884;17.410;2023-10-31T08:10:13;18.23;63.63
76291;DHT22;65100;46.884;17.410;2023-10-31T08:12:39;18.46;63.56
76291;DHT22;65100;46.884;17.410;2023-10-31T08:15:04;18.47;63.43
76291;DHT22;65100;46.884;17.410;2023-10-31T08:17:30;18.46;63.31
76291;DHT22;65100;46.884;17.410;2023-10-31T08:19:56;18.49;64.15
76291;DHT22;65100;46.884;17.410;2023-10-31T08:22:21;18.43;64.59
76291;DHT22;65100;46.884;17.410;2023-10-31T08:24:47;18.46;65.25
76291;DHT22;65100;46.884;17.410;2023-10-31T08:27:13;18.67;63.40
76291;DHT22;65100;46.884;17.410;2023-10-31T08:29:38;18.41;64.60
76291;DHT22;65100;46.884;17.410;2023-10-31T08:32:05;18.53;63.04
76291;DHT22;65100;46.884;17.410;2023-10-31T08:34:30;18.50;60.98
76291;DHT22;65100;46.884;17.410;2023-10-31T08:36:56;18.46;61.80
76291;DHT22;65100;46.884;17.410;2023-10-31T08:39:22;18.33;61.56
76291;DHT22;65100;46.884;17.410;2023-10-31T08:41:52;18.34;62.39
76291;DHT22;65100;46.884;17.410;2023-10-31T08:44:17;18.26;60.72
76291;DHT22;65100;46.884;17.410;2023-10-31T08:46:43;18.30;61.11
76291;DHT22;65100;46.884;17.410;2023-10-31T08:49:08;18.36;59.77
76291;DHT22;65100;46.884;17.410;2023-10-31T08:51:34;18.19;60.05
76291;DHT22;65100;46.884;17.410;2023-10-31T08:53:59;18.20;60.33
76291;DHT22;65100;46.884;17.410;2023-10-31T08:56:25;18.25;59.49
76291;DHT22;65100;46.884;17.410;2023-10-31T08:58:52;18.19;59.80
76291;DHT22;65100;46.884;17.410;2023-10-31T09:01:18;18.12;62.33
76291;DHT22;65100;46.884;17.410;2023-10-31T09:03:44;18.06;63.03
76291;DHT22;65100;46.884;17.410;2023-10-31T09:06:10;17.72;64.68
76291;DHT22;65100;46.884;17.410;2023-10-31T09:08:35;17.56;70.86
76291;DHT22;65100;46.884;17.410;2023-10-31T09:11:03;17.55;74.22
76291;DHT22;65100;46.884;17.410;2023-10-31T09:13:29;17.45;75.57
76291;DHT22;65100;46.884;17.410;2023-10-31T09:15:54;17.14;76.67
76291;DHT22;65100;46.884;17.410;2023-10-31T09:18:20;17.12;77.65
76291;DHT22;65100;46.884;17.410;2023-10-31T09:20:45;17.31;77.18
76291;DHT22;65100;46.884;17.410;2023-10-31T09:23:11;17.14;79.49
76291;DHT22;65100;46.884;17.410;2023-10-31T09:25:36;16.81;79.60
76291;DHT22;65100;46.884;17.410;2023-10-31T09:28:02;17.12;79.48
76291;DHT22;65100;46.884;17.410;2023-10-31T09:30:27;17.17;79.47
76291;DHT22;65100;46.884;17.410;2023-10-31T09:32:53;17.11;78.04
76291;DHT22;65100;46.884;17.410;2023-10-31T09:35:18;16.88;77.86
76291;DHT22;65100;46.884;17.410;2023-10-31T09:37:44;16.81;78.09
76291;DHT22;65100;46.884;17.410;2023-10-31T09:40:13;16.73;78.34
76291;DHT22;65100;46.884;17.410;2023-10-31T09:42:39;16.83;77.86
76291;DHT22;65100;46.884;17.410;2023-10-31T09:45:05;16.85;78.27
76291;DHT22;65100;46.884;17.410;2023-10-31T09:47:31;16.85;78.36
76291;DHT22;65100;46.884;17.410;2023-10-31T09:49:58;16.92;77.31
76291;DHT22;65100;46.884;17.410;2023-10-31T09:52:23;16.98;77.70
76291;DHT22;65100;46.884;17.410;2023-10-31T09:54:51;17.10;76.35
76291;DHT22;65100;46.884;17.410;2023-10-31T09:57:17;17.12;76.10
76291;DHT22;65100;46.884;17.410;2023-10-31T09:59:43;17.27;78.34
76291;DHT22;65100;46.884;17.410;2023-10-31T10:02:08;17.62;78.01
76291;DHT22;65100;46.884;17.410;2023-10-31T10:04:35;17.73;77.33
76291;DHT22;65100;46.884;17.410;2023-10-31T10:07:02;17.78;73.66
76291;DHT22;65100;46.884;17.410;2023-10-31T10:09:27;17.82;68.31
76291;DHT22;65100;46.884;17.410;2023-10-31T10:11:53;17.79;67.98
76291;DHT22;65100;46.884;17.410;2023-10-31T10:14:20;17.92;67.48
76291;DHT22;65100;46.884;17.410;2023-10-31T10:16:47;17.92;68.96
76291;DHT22;65100;46.884;17.410;2023-10-31T10:19:18;17.95;69.60
76291;DHT22;65100;46.884;17.410;2023-10-31T10:21:56;18.05;71.81
76291;DHT22;65100;46.884;17.410;2023-10-31T10:24:22;18.13;72.55
76291;DHT22;65100;46.884;17.410;2023-10-31T10:26:49;18.34;67.81
76291;DHT22;65100;46.884;17.410;2023-10-31T10:29:15;18.44;67.31
76291;DHT22;65100;46.884;17.410;2023-10-31T10:31:41;18.40;68.84
76291;DHT22;65100;46.884;17.410;2023-10-31T10:34:10;18.30;69.51
76291;DHT22;65100;46.884;17.410;2023-10-31T10:36:38;18.20;69.78
76291;DHT22;65100;46.884;17.410;2023-10-31T10:39:05;18.19;70.69
76291;DHT22;65100;46.884;17.410;2023-10-31T10:41:34;18.14;73.62
76291;DHT22;65100;46.884;17.410;2023-10-31T10:44:09;17.76;78.04
76291;DHT22;65100;46.884;17.410;2023-10-31T10:46:38;17.24;84.26
76291;DHT22;65100;46.884;17.410;2023-10-31T10:49:06;16.64;85.48
76291;DHT22;65100;46.884;17.410;2023-10-31T10:54:08;16.03;87.12
76291;DHT22;65100;46.884;17.410;2023-10-31T10:56:38;16.05;87.54
76291;DHT22;65100;46.884;17.410;2023-10-31T10:59:20;16.05;86.97
76291;DHT22;65100;46.884;17.410;2023-10-31T11:01:46;16.00;87.22
76291;DHT22;65100;46.884;17.410;2023-10-31T11:04:14;16.03;87.49
76291;DHT22;65100;46.884;17.410;2023-10-31T11:06:41;16.02;87.05
76291;DHT22;65100;46.884;17.410;2023-10-31T11:09:09;15.83;87.59
76291;DHT22;65100;46.884;17.410;2023-10-31T11:11:37;15.83;86.38
76291;DHT22;65100;46.884;17.410;2023-10-31T11:14:03;15.62;86.05
76291;DHT22;65100;46.884;17.410;2023-10-31T11:16:36;15.43;84.37
76291;DHT22;65100;46.884;17.410;2023-10-31T11:19:07;15.28;84.87
76291;DHT22;65100;46.884;17.410;2023-10-31T11:21:34;14.95;84.13
76291;DHT22;65100;46.884;17.410;2023-10-31T11:24:00;14.84;85.86
76291;DHT22;65100;46.884;17.410;2023-10-31T11:26:27;14.67;85.92
76291;DHT22;65100;46.884;17.410;2023-10-31T11:29:02;14.60;85.53
76291;DHT22;65100;46.884;17.410;2023-10-31T11:31:27;14.45;86.11
76291;DHT22;65100;46.884;17.410;2023-10-31T11:33:53;14.47;86.29
76291;DHT22;65100;46.884;17.410;2023-10-31T11:36:19;14.40;85.87
76291;DHT22;65100;46.884;17.410;2023-10-31T11:38:45;14.37;86.63
76291;DHT22;65100;46.884;17.410;2023-10-31T11:41:11;14.31;86.18
76291;DHT22;65100;46.884;17.410;2023-10-31T11:46:05;14.16;86.62
76291;DHT22;65100;46.884;17.410;2023-10-31T11:48:50;14.08;86.97
76291;DHT22;65100;46.884;17.410;2023-10-31T11:51:16;14.06;88.16
76291;DHT22;65100;46.884;17.410;2023-10-31T11:53:45;13.86;88.84
76291;DHT22;65100;46.884;17.410;2023-10-31T11:56:11;13.72;90.20
76291;DHT22;65100;46.884;17.410;2023-10-31T11:58:37;14.00;89.15
76291;DHT22;65100;46.884;17.410;2023-10-31T12:01:07;14.16;87.86
76291;DHT22;65100;46.884;17.410;2023-10-31T12:03:43;14.02;87.39
76291;DHT22;65100;46.884;17.410;2023-10-31T12:06:13;13.86;89.31
76291;DHT22;65100;46.884;17.410;2023-10-31T12:08:40;14.20;87.40
76291;DHT22;65100;46.884;17.410;2023-10-31T12:11:14;14.09;86.51
76291;DHT22;65100;46.884;17.410;2023-10-31T12:13:50;14.10;87.99
76291;DHT22;65100;46.884;17.410;2023-10-31T12:16:16;13.96;86.34
76291;DHT22;65100;46.884;17.410;2023-10-31T12:18:42;13.80;87.24
76291;DHT22;65100;46.884;17.410;2023-10-31T12:21:07;13.70;87.66
76291;DHT22;65100;46.884;17.410;2023-10-31T12:23:34;13.39;87.14
76291;DHT22;65100;46.884;17.410;2023-10-31T12:25:59;13.26;88.12
76291;DHT22;65100;46.884;17.410;2023-10-31T12:28:25;13.29;88.12
76291;DHT22;65100;46.884;17.410;2023-10-31T12:30:53;13.34;87.79
76291;DHT22;65100;46.884;17.410;2023-10-31T12:33:26;13.38;87.87
76291;DHT22;65100;46.884;17.410;2023-10-31T12:35:59;13.42;87.60
76291;DHT22;65100;46.884;17.410;2023-10-31T12:38:25;13.36;86.98
76291;DHT22;65100;46.884;17.410;2023-10-31T12:40:51;13.36;86.82
76291;DHT22;65100;46.884;17.410;2023-10-31T12:43:17;13.28;86.94
76291;DHT22;65100;46.884;17.410;2023-10-31T12:45:43;13.29;86.50
76291;DHT22;65100;46.884;17.410;2023-10-31T12:48:10;13.25;86.94
76291;DHT22;65100;46.884;17.410;2023-10-31T12:50:38;13.34;86.25
76291;DHT22;65100;46.884;17.410;2023-10-31T12:53:06;13.32;86.36
76291;DHT22;65100;46.884;17.410;2023-10-31T12:55:38;13.44;87.52
76291;DHT22;65100;46.884;17.410;2023-10-31T12:58:04;13.52;86.01
76291;DHT22;65100;46.884;17.410;2023-10-31T13:00:32;13.59;86.92
76291;DHT22;65100;46.884;17.410;2023-10-31T13:03:05;13.63;86.94
76291;DHT22;65100;46.884;17.410;2023-10-31T13:05:31;13.63;87.01
76291;DHT22;65100;46.884;17.410;2023-10-31T13:07:58;13.63;86.51
76291;DHT22;65100;46.884;17.410;2023-10-31T13:10:26;13.62;86.34
76291;DHT22;65100;46.884;17.410;2023-10-31T13:12:52;13.59;86.09
76291;DHT22;65100;46.884;17.410;2023-10-31T13:15:22;13.59;86.14
76291;DHT22;65100;46.884;17.410;2023-10-31T13:17:48;13.58;86.47
76291;DHT22;65100;46.884;17.410;2023-10-31T13:20:16;13.80;85.52
76291;DHT22;65100;46.884;17.410;2023-10-31T13:22:42;13.95;86.10
76291;DHT22;65100;46.884;17.410;2023-10-31T13:25:09;14.08;85.89
76291;DHT22;65100;46.884;17.410;2023-10-31T13:27:39;14.00;85.07
76291;DHT22;65100;46.884;17.410;2023-10-31T13:30:06;14.02;85.67
76291;DHT22;65100;46.884;17.410;2023-10-31T13:32:33;14.08;84.63
76291;DHT22;65100;46.884;17.410;2023-10-31T13:34:58;14.20;84.22
76291;DHT22;65100;46.884;17.410;2023-10-31T13:37:24;14.14;84.00
76291;DHT22;65100;46.884;17.410;2023-10-31T13:39:50;14.10;83.23
76291;DHT22;65100;46.884;17.410;2023-10-31T13:42:16;14.09;83.96
76291;DHT22;65100;46.884;17.410;2023-10-31T13:44:41;13.99;83.57
76291;DHT22;65100;46.884;17.410;2023-10-31T13:47:07;13.99;83.31
76291;DHT22;65100;46.884;17.410;2023-10-31T13:49:33;14.02;83.52
76291;DHT22;65100;46.884;17.410;2023-10-31T13:51:58;14.09;82.93
76291;DHT22;65100;46.884;17.410;2023-10-31T13:54:24;13.96;83.48
76291;DHT22;65100;46.884;17.410;2023-10-31T13:56:50;13.82;84.09
76291;DHT22;65100;46.884;17.410;2023-10-31T13:59:15;13.76;83.85
76291;DHT22;65100;46.884;17.410;2023-10-31T14:01:41;13.70;83.59
76291;DHT22;65100;46.884;17.410;2023-10-31T14:04:07;13.79;83.85
76291;DHT22;65100;46.884;17.410;2023-10-31T14:06:33;13.75;83.38
76291;DHT22;65100;46.884;17.410;2023-10-31T14:09:00;13.66;83.74
76291;DHT22;65100;46.884;17.410;2023-10-31T14:11:30;13.79;84.72
76291;DHT22;65100;46.884;17.410;2023-10-31T14:13:55;13.85;84.40
76291;DHT22;65100;46.884;17.410;2023-10-31T14:16:24;13.87;84.32
76291;DHT22;65100;46.884;17.410;2023-10-31T14:18:49;13.87;82.86
76291;DHT22;65100;46.884;17.410;2023-10-31T14:21:15;13.80;82.73
76291;DHT22;65100;46.884;17.410;2023-10-31T14:23:40;13.70;83.57
76291;DHT22;65100;46.884;17.410;2023-10-31T14:26:06;13.69;83.34
76291;DHT22;65100;46.884;17.410;2023-10-31T14:28:31;13.67;82.86
76291;DHT22;65100;46.884;17.410;2023-10-31T14:30:57;13.73;84.31
76291;DHT22;65100;46.884;17.410;2023-10-31T14:33:23;13.62;83.66
76291;DHT22;65100;46.884;17.410;2023-10-31T14:35:48;13.72;84.17
76291;DHT22;65100;46.884;17.410;2023-10-31T14:38:14;13.67;83.34
76291;DHT22;65100;46.884;17.410;2023-10-31T14:40:39;13.61;83.99
76291;DHT22;65100;46.884;17.410;2023-10-31T14:43:05;13.61;83.36
76291;DHT22;65100;46.884;17.410;2023-10-31T14:45:30;13.56;83.44
76291;DHT22;65100;46.884;17.410;2023-10-31T14:47:55;13.35;82.31
76291;DHT22;65100;46.884;17.410;2023-10-31T14:50:21;13.34;82.80
76291;DHT22;65100;46.884;17.410;2023-10-31T14:52:47;13.35;82.98
76291;DHT22;65100;46.884;17.410;2023-10-31T14:55:13;13.36;81.56
76291;DHT22;65100;46.884;17.410;2023-10-31T14:57:38;13.34;81.62
76291;DHT22;65100;46.884;17.410;2023-10-31T15:00:05;13.31;81.54
76291;DHT22;65100;46.884;17.410;2023-10-31T15:02:32;13.36;81.18
76291;DHT22;65100;46.884;17.410;2023-10-31T15:04:59;13.36;81.40
76291;DHT22;65100;46.884;17.410;2023-10-31T15:07:25;13.12;81.72
76291;DHT22;65100;46.884;17.410;2023-10-31T15:10:11;13.19;81.12
76291;DHT22;65100;46.884;17.410;2023-10-31T15:12:37;13.25;81.65
76291;DHT22;65100;46.884;17.410;2023-10-31T15:15:03;13.22;81.41